createdAt,value
2023-04-19T00:00:50.570Z,12.37
2023-04-19T00:01:57.609Z,12.38
2023-04-19T00:03:02.942Z,12.37
2023-04-19T00:04:12.021Z,12.38
2023-04-19T00:05:15.741Z,12.36
2023-04-19T00:06:18.027Z,12.36
2023-04-19T00:07:20.111Z,12.37
2023-04-19T00:08:22.171Z,12.36
2023-04-19T00:09:25.680Z,12.36
2023-04-19T00:10:28.321Z,12.34
2023-04-19T00:11:30.620Z,12.34
2023-04-19T00:12:33.488Z,12.34
2023-04-19T00:13:35.718Z,12.34
2023-04-19T00:14:37.817Z,12.33
2023-04-19T00:15:39.995Z,12.32
2023-04-19T00:16:42.232Z,12.33
2023-04-19T00:17:44.433Z,12.33
2023-04-19T00:18:47.250Z,12.33
2023-04-19T00:19:49.549Z,12.32
2023-04-19T00:20:51.845Z,12.33
2023-04-19T00:21:54.040Z,12.32
2023-04-19T00:22:56.235Z,12.30
2023-04-19T00:23:58.815Z,12.31
2023-04-19T00:25:01.692Z,12.31
2023-04-19T00:26:04.036Z,12.29
2023-04-19T00:27:06.106Z,12.30
2023-04-19T00:28:09.457Z,12.31
2023-04-19T00:29:12.185Z,12.29
2023-04-19T00:30:16.861Z,12.29
2023-04-19T00:31:19.789Z,12.26
2023-04-19T00:32:22.517Z,12.27
2023-04-19T00:33:25.937Z,12.26
2023-04-19T00:34:27.990Z,12.26
2023-04-19T00:35:31.977Z,12.23
2023-04-19T00:36:35.172Z,12.23
2023-04-19T00:37:37.728Z,12.23
2023-04-19T00:38:40.007Z,12.23
2023-04-19T00:39:45.682Z,12.22
2023-04-19T00:40:47.995Z,12.21
2023-04-19T00:41:50.865Z,12.20
2023-04-19T00:42:55.113Z,12.19
2023-04-19T00:43:58.582Z,12.18
2023-04-19T00:45:03.299Z,12.17
2023-04-19T00:46:06.156Z,12.17
2023-04-19T00:47:12.874Z,12.16
2023-04-19T00:48:17.041Z,12.15
2023-04-19T00:49:23.964Z,12.14
2023-04-19T00:50:26.485Z,12.15
2023-04-19T00:51:29.557Z,12.15
2023-04-19T00:52:34.414Z,12.15
2023-04-19T00:53:38.032Z,12.16
2023-04-19T00:54:42.124Z,12.15
2023-04-19T00:55:45.760Z,12.15
2023-04-19T00:56:49.201Z,12.16
2023-04-19T00:57:53.030Z,12.15
2023-04-19T00:58:57.155Z,12.15
2023-04-19T01:00:00.680Z,12.14
2023-04-19T01:01:05.474Z,12.13
2023-04-19T01:02:09.274Z,12.14
2023-04-19T01:03:11.798Z,12.14
2023-04-19T01:04:15.946Z,12.13
2023-04-19T01:05:24.108Z,12.14
2023-04-19T01:06:30.071Z,12.14
2023-04-19T01:07:33.553Z,12.11
2023-04-19T01:08:35.926Z,12.12
2023-04-19T01:09:42.933Z,12.10
2023-04-19T01:10:45.737Z,12.11
2023-04-19T01:11:47.945Z,12.09
2023-04-19T01:12:52.010Z,12.11
2023-04-19T01:13:59.376Z,12.10
2023-04-19T01:15:02.122Z,12.10
2023-04-19T01:16:08.804Z,12.09
2023-04-19T01:17:14.299Z,12.06
2023-04-19T01:18:16.995Z,12.06
2023-04-19T01:19:19.250Z,12.07
2023-04-19T01:20:24.477Z,12.05
2023-04-19T01:21:26.581Z,12.05
2023-04-19T01:22:28.951Z,12.03
2023-04-19T01:23:31.229Z,12.03
2023-04-19T01:24:33.783Z,12.03
2023-04-19T01:25:36.392Z,12.03
2023-04-19T01:26:39.722Z,12.03
2023-04-19T01:28:01.664Z,12.03
2023-04-19T01:29:04.387Z,12.03
2023-04-19T01:30:08.747Z,12.03
2023-04-19T01:31:11.016Z,12.02
2023-04-19T01:32:13.041Z,12.03
2023-04-19T01:33:15.662Z,12.01
2023-04-19T01:34:18.585Z,12.00
2023-04-19T01:35:20.749Z,12.00
2023-04-19T01:36:22.964Z,12.00
2023-04-19T01:37:25.685Z,11.99
2023-04-19T01:38:28.432Z,11.99
2023-04-19T01:39:31.172Z,11.98
2023-04-19T01:40:33.839Z,11.97
2023-04-19T01:41:35.787Z,11.98
2023-04-19T01:42:37.849Z,11.97
2023-04-19T01:43:40.296Z,11.97
2023-04-19T01:44:44.095Z,11.95
2023-04-19T01:45:46.161Z,11.96
2023-04-19T01:46:48.967Z,11.94
2023-04-19T01:47:52.089Z,11.94
2023-04-19T01:48:54.254Z,11.94
2023-04-19T01:49:56.534Z,11.94
2023-04-19T01:50:58.678Z,11.94
2023-04-19T01:52:01.399Z,11.94
2023-04-19T01:53:03.559Z,11.92
2023-04-19T01:54:05.729Z,11.91
2023-04-19T01:55:08.469Z,11.90
2023-04-19T01:56:11.822Z,11.90
2023-04-19T01:57:13.980Z,11.88
2023-04-19T01:58:16.922Z,11.88
2023-04-19T01:59:20.903Z,11.88
2023-04-19T02:00:23.232Z,11.88
2023-04-19T02:01:25.444Z,11.88
2023-04-19T02:02:27.836Z,11.88
2023-04-19T02:03:31.489Z,11.87
2023-04-19T02:04:34.457Z,11.87
2023-04-19T02:05:39.077Z,11.86
2023-04-19T02:06:41.235Z,11.85
2023-04-19T02:07:43.840Z,11.84
2023-04-19T02:08:46.311Z,11.84
2023-04-19T02:09:48.778Z,11.85
2023-04-19T02:10:51.152Z,11.85
2023-04-19T02:11:53.292Z,11.85
2023-04-19T02:12:56.596Z,11.86
2023-04-19T02:13:59.760Z,11.85
2023-04-19T02:15:05.279Z,11.84
2023-04-19T02:16:11.070Z,11.83
2023-04-19T02:17:13.234Z,11.84
2023-04-19T02:18:15.389Z,11.85
2023-04-19T02:19:17.966Z,11.84
2023-04-19T02:20:20.283Z,11.84
2023-04-19T02:21:24.183Z,11.83
2023-04-19T02:22:26.554Z,11.83
2023-04-19T02:23:28.712Z,11.83
2023-04-19T02:24:30.998Z,11.83
2023-04-19T02:25:33.852Z,11.84
2023-04-19T02:26:39.000Z,11.83
2023-04-19T02:27:41.386Z,11.83
2023-04-19T02:28:44.752Z,11.82
2023-04-19T02:29:47.782Z,11.83
2023-04-19T02:30:50.250Z,11.83
2023-04-19T02:31:52.467Z,11.82
2023-04-19T02:32:55.020Z,11.83
2023-04-19T02:33:58.400Z,11.84
2023-04-19T02:35:01.832Z,11.84
2023-04-19T02:36:06.056Z,11.83
2023-04-19T02:37:08.378Z,11.83
2023-04-19T02:38:10.541Z,11.83
2023-04-19T02:39:12.639Z,11.83
2023-04-19T02:40:14.928Z,11.81
2023-04-19T02:41:17.254Z,11.80
2023-04-19T02:42:19.330Z,11.80
2023-04-19T02:43:21.435Z,11.80
2023-04-19T02:44:23.606Z,11.80
2023-04-19T02:45:25.863Z,11.80
2023-04-19T02:46:30.077Z,11.79
2023-04-19T02:47:32.993Z,11.78
2023-04-19T02:48:35.304Z,11.78
2023-04-19T02:49:37.906Z,11.79
2023-04-19T02:50:40.497Z,11.77
2023-04-19T02:51:43.898Z,11.78
2023-04-19T02:52:46.902Z,11.78
2023-04-19T02:53:49.471Z,11.77
2023-04-19T02:54:51.745Z,11.75
2023-04-19T02:55:53.918Z,11.76
2023-04-19T02:56:56.666Z,11.76
2023-04-19T02:57:59.125Z,11.76
2023-04-19T02:59:02.782Z,11.76
2023-04-19T03:00:06.758Z,11.75
2023-04-19T03:01:09.702Z,11.74
2023-04-19T03:02:11.961Z,11.75
2023-04-19T03:03:14.387Z,11.75
2023-04-19T03:04:16.873Z,11.76
2023-04-19T03:05:19.649Z,11.76
2023-04-19T03:06:22.492Z,11.77
2023-04-19T03:07:24.686Z,11.76
2023-04-19T03:08:27.153Z,11.76
2023-04-19T03:09:29.300Z,11.76
2023-04-19T03:10:33.727Z,11.76
2023-04-19T03:11:36.289Z,11.75
2023-04-19T03:12:38.581Z,11.74
2023-04-19T03:13:40.819Z,11.73
2023-04-19T03:14:43.375Z,11.74
2023-04-19T03:15:46.666Z,11.73
2023-04-19T03:16:48.971Z,11.73
2023-04-19T03:17:51.548Z,11.73
2023-04-19T03:18:54.635Z,11.72
2023-04-19T03:19:58.675Z,11.71
2023-04-19T03:21:02.343Z,11.72
2023-04-19T03:22:07.477Z,11.72
2023-04-19T03:23:10.015Z,11.72
2023-04-19T03:24:12.887Z,11.72
2023-04-19T03:25:17.549Z,11.73
2023-04-19T03:26:21.834Z,11.73
2023-04-19T03:27:27.954Z,11.72
2023-04-19T03:28:32.312Z,11.74
2023-04-19T03:29:39.284Z,11.73
2023-04-19T03:30:43.278Z,11.73
2023-04-19T03:31:45.573Z,11.72
2023-04-19T03:32:48.405Z,11.75
2023-04-19T03:33:50.917Z,11.74
2023-04-19T03:34:54.137Z,11.75
2023-04-19T03:35:57.201Z,11.76
2023-04-19T03:37:00.350Z,11.76
2023-04-19T03:38:02.767Z,11.77
2023-04-19T03:39:04.910Z,11.76
2023-04-19T03:40:09.349Z,11.78
2023-04-19T03:41:24.910Z,11.78
2023-04-19T03:42:35.488Z,11.78
2023-04-19T03:43:48.670Z,11.79
2023-04-19T03:44:51.812Z,11.79
2023-04-19T03:45:54.402Z,11.77
2023-04-19T03:46:57.390Z,11.77
2023-04-19T03:48:02.919Z,11.77
2023-04-19T03:49:08.158Z,11.80
2023-04-19T03:50:13.068Z,11.80
2023-04-19T03:51:16.720Z,11.79
2023-04-19T03:52:19.558Z,11.79
2023-04-19T03:53:24.614Z,11.79
2023-04-19T03:54:26.685Z,11.80
2023-04-19T03:55:29.064Z,11.79
2023-04-19T03:56:31.702Z,11.79
2023-04-19T03:57:34.522Z,11.80
2023-04-19T03:58:39.395Z,11.80
2023-04-19T03:59:43.617Z,11.81
2023-04-19T04:00:46.479Z,11.82
2023-04-19T04:01:48.947Z,11.83
2023-04-19T04:02:51.388Z,11.83
2023-04-19T04:03:57.151Z,11.84
2023-04-19T04:05:02.902Z,11.84
2023-04-19T04:06:06.361Z,11.85
2023-04-19T04:07:08.985Z,11.84
2023-04-19T04:08:11.123Z,11.85
2023-04-19T04:09:13.795Z,11.85
2023-04-19T04:10:16.914Z,11.86
2023-04-19T04:11:19.082Z,11.87
2023-04-19T04:12:23.224Z,11.88
2023-04-19T04:13:27.319Z,11.88
2023-04-19T04:14:34.578Z,11.89
2023-04-19T04:15:37.219Z,11.91
2023-04-19T04:16:40.070Z,11.92
2023-04-19T04:17:43.731Z,11.93
2023-04-19T04:18:48.692Z,11.92
2023-04-19T04:19:51.411Z,11.95
2023-04-19T04:20:54.247Z,11.97
2023-04-19T04:21:57.365Z,11.97
2023-04-19T04:23:01.390Z,11.99
2023-04-19T04:24:04.874Z,12.02
2023-04-19T04:25:12.740Z,12.03
2023-04-19T04:26:15.389Z,12.05
2023-04-19T04:27:22.501Z,12.06
2023-04-19T04:28:30.344Z,12.09
2023-04-19T04:29:33.092Z,12.10
2023-04-19T04:30:37.088Z,12.12
2023-04-19T04:31:40.229Z,12.14
2023-04-19T04:32:43.419Z,12.15
2023-04-19T04:33:46.123Z,12.17
2023-04-19T04:34:49.408Z,12.20
2023-04-19T04:35:56.621Z,12.21
2023-04-19T04:36:59.653Z,12.22
2023-04-19T04:38:08.377Z,12.24
2023-04-19T04:39:06.396Z,12.26
2023-04-19T04:40:10.781Z,12.27
2023-04-19T04:41:12.964Z,12.29
2023-04-19T04:42:15.172Z,12.31
2023-04-19T04:43:17.825Z,12.35
2023-04-19T04:44:20.537Z,12.36
2023-04-19T04:45:23.202Z,12.38
2023-04-19T04:46:26.506Z,12.40
2023-04-19T04:47:34.289Z,12.42
2023-04-19T04:48:38.348Z,12.45
2023-04-19T04:49:41.187Z,12.49
2023-04-19T04:50:43.575Z,12.53
2023-04-19T04:51:48.030Z,12.56
2023-04-19T04:52:52.045Z,12.57
2023-04-19T04:53:56.466Z,12.59
2023-04-19T04:54:58.861Z,12.61
2023-04-19T04:56:03.424Z,12.63
2023-04-19T04:57:06.545Z,12.66
2023-04-19T04:58:08.723Z,12.68
2023-04-19T04:59:15.675Z,12.71
2023-04-19T05:00:20.243Z,12.75
2023-04-19T05:01:24.364Z,12.87
2023-04-19T05:02:27.400Z,12.88
2023-04-19T05:03:29.740Z,12.90
2023-04-19T05:04:34.491Z,12.94
2023-04-19T05:05:37.160Z,13.10
2023-04-19T05:06:39.877Z,13.21
2023-04-19T05:07:43.683Z,13.21
2023-04-19T05:08:47.556Z,13.25
2023-04-19T05:09:54.810Z,13.33
2023-04-19T05:10:59.566Z,13.47
2023-04-19T05:12:04.093Z,13.55
2023-04-19T05:13:07.116Z,13.75
2023-04-19T05:14:09.526Z,13.82
2023-04-19T05:15:12.526Z,13.89
2023-04-19T05:16:16.487Z,13.96
2023-04-19T05:17:20.320Z,14.09
2023-04-19T05:18:23.375Z,14.15
2023-04-19T05:19:25.918Z,14.26
2023-04-19T05:20:29.920Z,14.38
2023-04-19T05:21:37.266Z,14.47
2023-04-19T05:23:01.563Z,14.54
2023-04-19T05:24:06.254Z,14.63
2023-04-19T05:25:10.515Z,14.75
2023-04-19T05:26:14.720Z,14.78
2023-04-19T05:27:17.398Z,14.87
2023-04-19T05:28:20.214Z,14.90
2023-04-19T05:29:27.335Z,14.92
2023-04-19T05:30:30.778Z,14.93
2023-04-19T05:31:33.184Z,14.93
2023-04-19T05:32:40.089Z,14.93
2023-04-19T05:33:44.172Z,14.90
2023-04-19T05:34:46.935Z,14.90
2023-04-19T05:35:51.118Z,14.89
2023-04-19T05:36:53.863Z,14.88
2023-04-19T05:37:56.478Z,14.87
2023-04-19T05:38:59.968Z,14.87
2023-04-19T05:40:04.423Z,14.89
2023-04-19T05:41:07.319Z,14.99
2023-04-19T05:42:10.098Z,15.06
2023-04-19T05:43:12.685Z,15.11
2023-04-19T05:44:15.889Z,15.13
2023-04-19T05:45:18.233Z,15.14
2023-04-19T05:46:20.339Z,15.15
2023-04-19T05:47:22.715Z,15.13
2023-04-19T05:48:42.315Z,15.13
2023-04-19T05:50:59.175Z,15.24
2023-04-19T05:52:03.345Z,15.08
2023-04-19T05:53:10.461Z,15.09
2023-04-19T05:54:12.836Z,15.07
2023-04-19T05:55:15.861Z,15.07
2023-04-19T05:56:19.859Z,15.05
2023-04-19T05:57:22.154Z,15.05
2023-04-19T05:58:26.415Z,15.04
2023-04-19T05:59:29.567Z,15.04
2023-04-19T06:00:31.835Z,15.02
2023-04-19T06:01:36.127Z,15.00
2023-04-19T06:02:38.519Z,14.99
2023-04-19T06:03:41.634Z,14.97
2023-04-19T06:04:45.061Z,14.95
2023-04-19T06:05:47.913Z,14.92
2023-04-19T06:06:51.118Z,14.89
2023-04-19T06:07:59.301Z,14.87
2023-04-19T06:08:57.437Z,14.84
2023-04-19T06:10:00.850Z,14.82
2023-04-19T06:11:11.834Z,14.80
2023-04-19T06:12:09.355Z,14.80
2023-04-19T06:13:11.601Z,14.77
2023-04-19T06:14:14.302Z,14.77
2023-04-19T06:15:17.918Z,14.74
2023-04-19T06:16:21.087Z,14.72
2023-04-19T06:17:23.625Z,14.71
2023-04-19T06:18:26.289Z,14.70
2023-04-19T06:19:28.342Z,14.69
2023-04-19T06:20:30.736Z,14.69
2023-04-19T06:21:33.400Z,14.68
2023-04-19T06:22:47.724Z,14.67
2023-04-19T06:23:49.813Z,14.69
2023-04-19T06:24:51.867Z,14.68
2023-04-19T06:25:53.948Z,14.67
2023-04-19T06:26:57.254Z,14.67
2023-04-19T06:29:01.871Z,14.67
2023-04-19T06:31:10.790Z,14.66
2023-04-19T06:35:19.721Z,14.64
2023-04-19T06:36:21.789Z,14.64
2023-04-19T06:37:23.873Z,14.64
2023-04-19T06:38:25.911Z,14.63
2023-04-19T06:39:27.958Z,14.63
2023-04-19T06:40:30.136Z,14.62
2023-04-19T06:41:32.407Z,14.63
2023-04-19T06:42:35.101Z,14.63
2023-04-19T06:43:37.293Z,14.64
2023-04-19T06:44:39.431Z,14.63
2023-04-19T06:45:42.249Z,14.63
2023-04-19T06:46:45.655Z,14.62
2023-04-19T06:56:06.081Z,14.64
2023-04-19T06:57:08.112Z,14.65
2023-04-19T06:58:10.263Z,14.66
2023-04-19T07:00:16.462Z,14.69
2023-04-19T07:01:19.088Z,14.70
2023-04-19T07:02:21.409Z,14.71
2023-04-19T07:03:24.218Z,14.73
2023-04-19T07:04:27.145Z,14.74
2023-04-19T07:05:31.243Z,14.75
2023-04-19T07:06:36.646Z,14.77
2023-04-19T07:07:38.866Z,14.79
2023-04-19T07:08:49.880Z,14.81
2023-04-19T07:09:45.226Z,14.82
2023-04-19T07:10:47.665Z,14.86
2023-04-19T07:11:49.811Z,14.88
2023-04-19T07:12:52.634Z,14.91
2023-04-19T07:13:55.030Z,14.97
2023-04-19T07:14:57.628Z,15.02
2023-04-19T07:16:03.368Z,15.09
2023-04-19T07:17:05.554Z,15.17
2023-04-19T07:18:08.225Z,15.28
2023-04-19T07:19:10.958Z,15.38
2023-04-19T07:20:13.397Z,15.49
2023-04-19T07:21:15.441Z,15.60
2023-04-19T07:22:17.514Z,15.72
2023-04-19T07:23:19.989Z,15.82
2023-04-19T07:24:22.131Z,15.94
2023-04-19T07:25:24.790Z,16.06
2023-04-19T07:26:27.091Z,16.18
2023-04-19T07:27:29.516Z,16.30
2023-04-19T07:28:31.717Z,16.41
2023-04-19T07:29:37.173Z,16.52
2023-04-19T07:30:39.288Z,16.63
2023-04-19T07:31:41.394Z,16.74
2023-04-19T07:32:43.826Z,16.83
2023-04-19T07:33:47.306Z,16.93
2023-04-19T07:34:49.498Z,17.03
2023-04-19T07:35:51.539Z,17.11
2023-04-19T07:36:53.874Z,17.21
2023-04-19T07:37:57.065Z,17.29
2023-04-19T07:38:59.599Z,17.38
2023-04-19T07:40:02.833Z,17.47
2023-04-19T07:41:05.791Z,17.57
2023-04-19T07:42:08.074Z,17.65
2023-04-19T07:43:10.142Z,17.75
2023-04-19T07:44:12.290Z,17.85
2023-04-19T07:45:15.758Z,17.95
2023-04-19T07:46:18.472Z,18.04
2023-04-19T07:47:21.250Z,18.13
2023-04-19T07:48:23.882Z,18.22
2023-04-19T07:49:26.637Z,18.31
2023-04-19T07:50:29.610Z,18.38
2023-04-19T07:51:31.783Z,18.45
2023-04-19T07:52:33.956Z,18.51
2023-04-19T07:53:36.464Z,18.61
2023-04-19T07:54:38.630Z,18.67
2023-04-19T07:55:40.725Z,18.73
2023-04-19T07:56:43.418Z,18.81
2023-04-19T07:57:45.595Z,18.89
2023-04-19T07:58:56.540Z,18.97
2023-04-19T07:59:51.670Z,19.08
2023-04-19T08:00:53.934Z,19.17
2023-04-19T08:01:56.584Z,19.26
2023-04-19T08:02:58.874Z,19.36
2023-04-19T08:04:02.053Z,19.44
2023-04-19T08:05:06.220Z,19.57
2023-04-19T08:06:08.889Z,19.66
2023-04-19T08:07:11.066Z,19.78
2023-04-19T08:08:13.216Z,19.90
2023-04-19T08:09:15.583Z,20.03
2023-04-19T08:10:22.231Z,20.17
2023-04-19T08:11:24.563Z,20.33
2023-04-19T08:12:35.109Z,20.50
2023-04-19T08:13:32.286Z,20.66
2023-04-19T08:14:43.827Z,20.82
2023-04-19T08:17:50.793Z,21.10
2023-04-19T08:18:53.107Z,21.13
2023-04-19T08:20:06.523Z,21.14
2023-04-19T08:21:12.796Z,21.16
2023-04-19T08:22:17.444Z,21.18
2023-04-19T08:23:29.511Z,21.20
2023-04-19T08:24:27.895Z,21.21
2023-04-19T08:25:32.763Z,21.25
2023-04-19T08:26:39.264Z,21.28
2023-04-19T08:27:43.951Z,21.33
2023-04-19T08:28:45.891Z,21.44
2023-04-19T08:29:48.486Z,21.52
2023-04-19T08:30:50.821Z,21.61
2023-04-19T08:31:52.889Z,21.68
2023-04-19T08:32:57.317Z,21.72
2023-04-19T08:33:59.995Z,21.74
2023-04-19T08:35:02.067Z,21.77
2023-04-19T08:36:06.311Z,21.77
2023-04-19T08:37:08.798Z,21.77
2023-04-19T08:38:11.257Z,21.77
2023-04-19T08:39:24.614Z,21.76
2023-04-19T08:40:19.729Z,21.78
2023-04-19T08:41:22.700Z,21.79
2023-04-19T08:42:35.434Z,21.80
2023-04-19T08:43:30.809Z,21.81
2023-04-19T08:45:49.433Z,21.92
2023-04-19T08:46:53.497Z,21.76
2023-04-19T08:48:01.528Z,21.78
2023-04-19T08:49:10.890Z,21.80
2023-04-19T08:50:31.292Z,21.82
2023-04-19T08:51:22.685Z,21.83
2023-04-19T08:52:29.986Z,21.83
2023-04-19T08:53:36.265Z,21.83
2023-04-19T08:54:44.355Z,21.84
2023-04-19T08:56:08.761Z,21.84
2023-04-19T08:56:59.457Z,21.81
2023-04-19T08:58:05.775Z,21.81
2023-04-19T08:59:17.997Z,21.79
2023-04-19T09:00:14.696Z,21.77
2023-04-19T09:01:30.404Z,21.77
2023-04-19T09:02:21.609Z,21.76
2023-04-19T09:03:34.685Z,21.74
2023-04-19T09:04:38.011Z,21.74
2023-04-19T09:05:41.117Z,21.70
2023-04-19T09:06:43.980Z,21.69
2023-04-19T09:07:49.663Z,21.69
2023-04-19T09:08:52.411Z,21.68
2023-04-19T09:10:10.414Z,21.68
2023-04-19T09:11:13.259Z,21.67
2023-04-19T09:12:17.159Z,21.70
2023-04-19T09:13:23.692Z,21.71
2023-04-19T09:14:27.644Z,21.73
2023-04-19T09:15:38.787Z,21.73
2023-04-19T09:16:42.943Z,21.72
2023-04-19T09:17:48.424Z,21.74
2023-04-19T09:19:22.446Z,21.76
2023-04-19T09:20:00.781Z,21.77
2023-04-19T09:21:06.019Z,21.76
2023-04-19T09:22:12.877Z,21.75
2023-04-19T09:23:16.739Z,21.75
2023-04-19T09:25:04.412Z,21.74
2023-04-19T09:26:19.150Z,21.71
2023-04-19T09:27:00.776Z,21.69
2023-04-19T09:28:16.297Z,21.69
2023-04-19T09:29:21.942Z,21.68
2023-04-19T09:30:32.334Z,21.64
2023-04-19T09:31:50.784Z,21.60
2023-04-19T09:32:49.684Z,21.57
2023-04-19T09:33:58.054Z,21.52
2023-04-19T09:35:00.196Z,21.47
2023-04-19T09:36:03.595Z,21.38
2023-04-19T09:37:17.836Z,21.34
2023-04-19T09:38:17.034Z,21.29
2023-04-19T09:39:30.403Z,21.22
2023-04-19T09:40:32.795Z,21.18
2023-04-19T09:41:36.342Z,21.12
2023-04-19T09:43:06.930Z,21.07
2023-04-19T09:44:08.952Z,21.01
2023-04-19T09:46:10.669Z,20.95
2023-04-19T09:47:26.884Z,20.95
2023-04-19T09:48:29.061Z,20.93
2023-04-19T09:51:02.344Z,20.92
2023-04-19T09:52:05.808Z,20.90
2023-04-19T09:53:08.576Z,20.91
2023-04-19T09:54:20.722Z,20.90
2023-04-19T09:55:30.236Z,20.89
2023-04-19T09:56:38.564Z,20.88
2023-04-19T09:57:49.828Z,20.85
2023-04-19T09:59:04.942Z,20.84
2023-04-19T10:00:06.994Z,20.81
2023-04-19T10:01:15.486Z,20.76
2023-04-19T10:02:16.946Z,20.70
2023-04-19T10:03:21.168Z,20.65
2023-04-19T10:04:44.172Z,20.61
2023-04-19T10:05:40.984Z,20.59
2023-04-19T10:07:07.067Z,20.54
2023-04-19T10:07:58.558Z,20.48
2023-04-19T10:09:01.466Z,20.42
2023-04-19T10:10:18.701Z,20.38
2023-04-19T10:13:59.634Z,20.22
2023-04-19T10:15:01.787Z,20.20
2023-04-19T10:16:18.106Z,20.19
2023-04-19T10:17:13.804Z,20.16
2023-04-19T10:18:18.540Z,20.14
2023-04-19T10:19:22.627Z,20.12
2023-04-19T10:21:46.114Z,20.15
2023-04-19T10:22:50.309Z,19.96
2023-04-19T10:23:53.344Z,19.94
2023-04-19T10:25:15.834Z,19.92
2023-04-19T10:26:19.561Z,19.91
2023-04-19T10:27:25.682Z,19.91
2023-04-19T10:28:30.370Z,19.91
2023-04-19T10:30:01.839Z,19.90
2023-04-19T10:31:05.692Z,19.91
2023-04-19T10:32:14.570Z,19.91
2023-04-19T10:33:27.506Z,19.91
2023-04-19T10:34:39.621Z,19.88
2023-04-19T10:35:44.098Z,19.85
2023-04-19T10:36:48.605Z,19.83
2023-04-19T10:38:13.435Z,19.81
2023-04-19T10:39:40.587Z,19.79
2023-04-19T10:41:00.282Z,19.78
2023-04-19T10:42:02.456Z,19.76
2023-04-19T10:43:15.223Z,19.74
2023-04-19T10:44:18.602Z,19.73
2023-04-19T10:45:35.962Z,19.71
2023-04-19T10:46:40.972Z,19.66
2023-04-19T10:47:46.108Z,19.60
2023-04-19T10:48:56.375Z,19.53
2023-04-19T10:51:19.757Z,19.53
2023-04-19T10:52:32.951Z,19.35
2023-04-19T10:54:12.986Z,19.32
2023-04-19T10:55:16.505Z,19.28
2023-04-19T10:56:35.052Z,19.21
2023-04-19T10:58:06.384Z,19.17
2023-04-19T10:59:16.283Z,19.15
2023-04-19T11:00:24.122Z,19.13
2023-04-19T11:04:33.231Z,19.14
2023-04-19T11:05:50.604Z,18.99
2023-04-19T11:07:06.917Z,18.97
2023-04-19T11:08:09.606Z,18.99
2023-04-19T11:09:11.795Z,19.01
2023-04-19T11:11:34.803Z,19.08
2023-04-19T11:12:39.891Z,18.92
2023-04-19T11:13:43.487Z,18.92
2023-04-19T11:14:48.591Z,18.93
2023-04-19T11:15:50.953Z,18.92
2023-04-19T11:16:54.230Z,18.92
2023-04-19T11:18:11.288Z,18.90
2023-04-19T11:19:02.821Z,18.90
2023-04-19T11:20:07.288Z,18.89
2023-04-19T11:22:41.172Z,19.01
2023-04-19T11:25:39.015Z,18.99
2023-04-19T11:26:48.139Z,18.85
2023-04-19T11:27:55.340Z,18.85
2023-04-19T11:28:57.609Z,18.84
2023-04-19T11:30:08.794Z,18.84
2023-04-19T11:31:11.638Z,18.83
2023-04-19T11:32:14.190Z,18.82
2023-04-19T11:33:19.407Z,18.80
2023-04-19T11:34:23.298Z,18.78
2023-04-19T11:35:26.993Z,18.74
2023-04-19T11:36:31.274Z,18.73
2023-04-19T11:37:36.558Z,18.71
2023-04-19T11:38:38.982Z,18.69
2023-04-19T11:39:46.332Z,18.67
2023-04-19T11:40:52.728Z,18.66
2023-04-19T11:41:54.836Z,18.64
2023-04-19T11:44:14.452Z,18.70
2023-04-19T11:45:34.460Z,18.56
2023-04-19T11:46:35.549Z,18.52
2023-04-19T11:47:48.958Z,18.51
2023-04-19T11:48:53.265Z,18.49
2023-04-19T11:49:55.743Z,18.43
2023-04-19T11:50:59.379Z,18.41
2023-04-19T11:52:05.592Z,18.39
2023-04-19T11:53:21.899Z,18.35
2023-04-19T11:54:24.224Z,18.33
2023-04-19T11:55:26.329Z,18.29
2023-04-19T11:56:28.736Z,18.27
2023-04-19T11:58:57.884Z,18.33
2023-04-19T12:00:10.539Z,18.15
2023-04-19T12:02:42.412Z,18.21
2023-04-19T12:05:09.768Z,18.17
2023-04-19T12:06:19.377Z,17.99
2023-04-19T12:07:21.511Z,18.00
2023-04-19T12:09:43.549Z,18.08
2023-04-19T12:10:56.727Z,17.89
2023-04-19T12:11:59.392Z,17.88
2023-04-19T12:13:18.752Z,17.84
2023-04-19T12:14:23.103Z,17.82
2023-04-19T12:15:42.569Z,17.79
2023-04-19T12:16:45.552Z,17.75
2023-04-19T12:19:15.734Z,17.78
2023-04-19T12:20:36.230Z,17.57
2023-04-19T12:21:40.775Z,17.55
2023-04-19T12:22:44.340Z,17.52
2023-04-19T12:23:46.525Z,17.50
2023-04-19T12:24:51.194Z,17.46
2023-04-19T12:25:54.182Z,17.43
2023-04-19T12:26:57.833Z,17.42
2023-04-19T12:29:15.088Z,17.49
2023-04-19T12:30:19.381Z,17.33
2023-04-19T12:31:21.629Z,17.34
2023-04-19T12:32:24.298Z,17.34
2023-04-19T12:33:26.939Z,17.32
2023-04-19T12:34:35.379Z,17.30
2023-04-19T12:35:37.621Z,17.29
2023-04-19T12:36:39.922Z,17.27
2023-04-19T12:37:42.189Z,17.24
2023-04-19T12:38:44.347Z,17.23
2023-04-19T12:39:46.920Z,17.21
2023-04-19T12:40:50.252Z,17.20
2023-04-19T12:42:01.689Z,17.20
2023-04-19T12:43:05.733Z,17.20
2023-04-19T12:44:08.567Z,17.19
2023-04-19T12:45:12.108Z,17.19
2023-04-19T12:46:14.370Z,17.18
2023-04-19T12:47:17.676Z,17.19
2023-04-19T12:48:19.816Z,17.19
2023-04-19T12:49:22.505Z,17.17
2023-04-19T12:50:24.763Z,17.14
2023-04-19T12:51:28.472Z,17.13
2023-04-19T12:52:30.694Z,17.13
2023-04-19T12:53:33.256Z,17.12
2023-04-19T12:54:36.416Z,17.12
2023-04-19T12:55:38.999Z,17.11
2023-04-19T12:56:41.813Z,17.09
2023-04-19T12:57:44.442Z,17.07
2023-04-19T12:58:47.011Z,17.05
2023-04-19T12:59:49.901Z,17.02
2023-04-19T13:00:52.310Z,17.00
2023-04-19T13:01:54.467Z,16.97
2023-04-19T13:02:57.277Z,16.94
2023-04-19T13:04:00.334Z,16.92
2023-04-19T13:05:03.150Z,16.89
2023-04-19T13:06:07.949Z,16.87
2023-04-19T13:07:10.220Z,16.85
2023-04-19T13:08:12.531Z,16.83
2023-04-19T13:09:15.400Z,16.80
2023-04-19T13:10:27.993Z,16.80
2023-04-19T13:11:30.236Z,16.78
2023-04-19T13:12:33.102Z,16.76
2023-04-19T13:13:35.252Z,16.76
2023-04-19T13:14:37.463Z,16.74
2023-04-19T13:15:39.489Z,16.71
2023-04-19T13:16:41.972Z,16.70
2023-04-19T13:17:44.085Z,16.69
2023-04-19T13:18:47.176Z,16.68
2023-04-19T13:19:50.665Z,16.67
2023-04-19T13:20:53.057Z,16.66
2023-04-19T13:21:55.467Z,16.65
2023-04-19T13:22:57.735Z,16.64
2023-04-19T13:23:59.921Z,16.62
2023-04-19T13:26:20.271Z,16.59
2023-04-19T13:27:26.731Z,16.58
2023-04-19T13:28:36.158Z,16.56
2023-04-19T13:29:38.342Z,16.55
2023-04-19T13:31:59.858Z,16.63
2023-04-19T13:33:02.684Z,16.47
2023-04-19T13:34:10.084Z,16.46
2023-04-19T13:35:12.259Z,16.45
2023-04-19T13:36:17.407Z,16.42
2023-04-19T13:37:21.506Z,16.41
2023-04-19T13:38:27.072Z,16.39
2023-04-19T13:39:29.850Z,16.38
2023-04-19T13:40:32.049Z,16.36
2023-04-19T13:41:34.931Z,16.35
2023-04-19T13:42:41.991Z,16.35
2023-04-19T13:43:44.821Z,16.33
2023-04-19T13:44:49.384Z,16.32
2023-04-19T13:45:52.301Z,16.32
2023-04-19T13:46:55.115Z,16.30
2023-04-19T13:47:57.159Z,16.30
2023-04-19T13:48:59.394Z,16.30
2023-04-19T13:50:01.424Z,16.28
2023-04-19T13:51:05.506Z,16.26
2023-04-19T13:52:08.920Z,16.27
2023-04-19T13:53:11.255Z,16.25
2023-04-19T13:54:13.446Z,16.25
2023-04-19T13:55:15.696Z,16.24
2023-04-19T13:56:19.804Z,16.22
2023-04-19T13:57:21.917Z,16.22
2023-04-19T13:58:25.990Z,16.22
2023-04-19T13:59:28.122Z,16.20
2023-04-19T14:00:32.619Z,16.19
2023-04-19T14:01:37.418Z,16.20
2023-04-19T14:02:43.351Z,16.18
2023-04-19T14:03:45.755Z,16.18
2023-04-19T14:04:50.711Z,16.17
2023-04-19T14:05:55.114Z,16.16
2023-04-19T14:07:02.053Z,16.14
2023-04-19T14:08:08.521Z,16.14
2023-04-19T14:09:10.797Z,16.12
2023-04-19T14:10:13.795Z,16.10
2023-04-19T14:11:16.383Z,16.08
2023-04-19T14:12:18.590Z,16.09
2023-04-19T14:13:20.751Z,16.06
2023-04-19T14:14:23.034Z,16.06
2023-04-19T14:15:32.590Z,16.05
2023-04-19T14:16:36.767Z,16.02
2023-04-19T14:17:40.611Z,16.02
2023-04-19T14:18:43.382Z,16.00
2023-04-19T14:19:45.386Z,15.98
2023-04-19T14:20:49.046Z,15.97
2023-04-19T14:21:51.672Z,15.96
2023-04-19T14:22:53.725Z,15.94
2023-04-19T14:23:55.783Z,15.93
2023-04-19T14:24:58.802Z,15.91
2023-04-19T14:26:01.497Z,15.91
2023-04-19T14:27:10.348Z,15.90
2023-04-19T14:28:10.387Z,15.87
2023-04-19T14:29:12.475Z,15.87
2023-04-19T14:30:16.609Z,15.87
2023-04-19T14:31:23.633Z,15.86
2023-04-19T14:32:28.936Z,15.84
2023-04-19T14:33:32.350Z,15.82
2023-04-19T14:34:34.458Z,15.82
2023-04-19T14:35:37.679Z,15.80
2023-04-19T14:36:39.816Z,15.80